Cumari, Brazil
Current Conditions -  °F | °C
As of 1:00 AM on Thursday 23 Oct 2014 (Local Time) from SBUL Reporting Station
Thunderstorm Thunderstorm  
Wind Chill: 23°   Ceiling: Unl
Heat Index: 23°   Visibility: 6mi
Dew Point: 16°   Wind: 13mph
Humidity: 65%   Direction: 70°ENE
Pressure: 30.09"   Gusts: NA
Location:  18.26°S, 48.15°W
Report Text: SBUL 230300Z 07011KT 9999 TS FEW040 FEW045CB SCT100 23/16 Q1019
Loading
Personal Weather Stations






























Interactive Weather Map
Tropical Storm Tracking
New forecast layout! Learn more

10-Day Weather Forecast

Advertisements
Track Severe Weather on mobile